Latest Weather Observations for Jabiru

IDD60801

Issued at 9:01 am CST Saturday 23 May 2015 (issued every 30 minutes, with the page automatically refreshed every 10 minutes)

About weather observations | Map of weather stations | Latest weather observations for NT | Other Formats
Station Details ID: 014198 Name: JABIRU AIRPORT Lat: -12.66 Lon: 132.89 Height: 26.5 m
Data from the previous 72 hours. | See also: Recent months at Jabiru
Date/Time
CST
Temp
°C
App
Temp
°C
Dew
Point
Rel
Hum
%
Delta-T
°C
Wind Press
QNH
hPa
Press
MSL
hPa
Rain
since 9 am
mm
Dir
 
Spd
km/h
Gust
km/h
Spd
kts
Gust
kts
23/09:00am 26.0 22.5 13.5 46 7.3 ESE 24 39 13 21 1016.8 1016.6 0.0
23/08:30am 25.3 22.5 13.2 47 7.1 ESE 20 33 11 18 1016.7 1016.5 0.0
23/08:00am 24.3 23.3 14.7 55 5.7 ESE 13 22 7 12 1016.5 1016.3 0.0
23/07:30am 23.5 22.2 14.8 58 5.2 ESE 15 20 8 11 1016.4 1016.2 0.0
23/07:00am 22.5 21.0 14.1 59 4.9 ESE 15 20 8 11 1016.2 1016.0 0.0
23/06:30am 22.5 21.6 13.6 57 5.2 ESE 11 19 6 10 1015.9 1015.7 0.0
23/06:00am 23.0 21.5 13.2 54 5.7 ESE 13 20 7 11 1015.7 1015.5 0.0
23/05:30am 23.2 22.1 13.1 53 5.8 ESE 11 17 6 9 1015.6 1015.4 0.0
23/05:00am 23.5 22.5 13.4 53 5.9 ESE 11 17 6 9 1015.4 1015.2 0.0
23/04:30am 23.5 22.6 13.7 54 5.7 ESE 11 17 6 9 1015.4 1015.2 0.0
23/04:00am 24.0 23.1 13.8 53 6.0 ESE 11 19 6 10 1015.3 1015.1 0.0
23/03:30am 24.1 23.3 13.9 53 6.0 ESE 11 17 6 9 1015.3 1015.1 0.0
23/03:00am 24.0 23.5 13.8 53 6.0 ESE 9 13 5 7 1015.3 1015.1 0.0
23/02:30am 24.3 23.3 13.5 51 6.3 ESE 11 15 6 8 1015.4 1015.2 0.0
23/02:00am 25.2 24.2 13.4 48 6.9 ESE 11 15 6 8 1015.6 1015.4 0.0
23/01:30am 25.2 24.2 13.4 48 6.9 ESE 11 17 6 9 1015.8 1015.6 0.0
23/01:00am 25.5 24.8 14.3 50 6.7 ESE 11 19 6 10 1015.8 1015.6 0.0
23/12:30am 25.3 25.3 15.3 54 6.0 ESE 9 13 5 7 1016.0 1015.8 0.0
23/12:00am 25.9 26.2 15.9 54 6.1 ESE 9 13 5 7 1016.2 1016.0 0.0
 
Date/Time
CST
Temp
°C
App
Temp
°C
Dew
Point
Rel
Hum
%
Delta-T
°C
Wind Press
QNH
hPa
Press
MSL
hPa
Rain
since 9 am
mm
Dir
 
Spd
km/h
Gust
km/h
Spd
kts
Gust
kts
22/11:30pm 26.8 25.9 15.8 51 6.7 E 15 22 8 12 1016.3 1016.1 0.0
22/11:00pm 26.8 26.6 15.8 51 6.7 ESE 11 17 6 9 1016.4 1016.2 0.0
22/10:30pm 26.3 26.4 15.4 51 6.6 ESE 9 15 5 8 1016.3 1016.1 0.0
22/10:00pm 25.6 26.2 15.9 55 5.9 SE 7 13 4 7 1016.1 1015.9 0.0
22/09:30pm 25.3 25.9 15.9 56 5.7 ESE 7 11 4 6 1016.0 1015.8 0.0
22/09:00pm 27.7 27.6 15.0 45 7.7 SE 9 13 5 7 1015.7 1015.5 0.0
22/08:30pm 27.3 27.7 15.3 48 7.3 SE 7 9 4 5 1015.5 1015.3 0.0
22/08:00pm 27.6 28.1 15.6 48 7.3 ESE 7 9 4 5 1015.0 1014.8 0.0
22/07:30pm 28.5 28.8 15.1 44 8.2 ESE 7 11 4 6 1014.6 1014.4 0.0
22/07:00pm 29.3 29.6 15.1 42 8.7 ESE 7 11 4 6 1014.2 1014.0 0.0
22/06:30pm 30.4 30.4 15.3 40 9.3 ESE 9 13 5 7 1014.0 1013.8 0.0
22/06:00pm 30.8 30.9 15.6 39 9.4 ESE 9 13 5 7 1013.7 1013.5 0.0
22/05:30pm 31.5 31.8 15.9 39 9.7 E 9 13 5 7 1013.3 1013.1 0.0
22/05:00pm 31.8 31.4 15.3 37 10.2 E 11 19 6 10 1012.9 1012.7 0.0
22/04:30pm 32.9 32.2 15.4 35 10.9 E 13 17 7 9 1012.7 1012.5 0.0
22/04:00pm 33.0 32.3 15.5 35 10.9 E 13 19 7 10 1012.6 1012.4 0.0
22/03:30pm 33.0 31.4 15.0 33 11.1 E 17 22 9 12 1012.7 1012.5 0.0
22/03:00pm 33.6 31.7 15.1 33 11.5 E 19 30 10 16 1012.8 1012.6 0.0
22/02:30pm 33.1 31.9 16.0 35 10.7 ESE 17 32 9 17 1013.0 1012.8 0.0
22/02:00pm 33.4 32.1 15.8 34 11.0 E 17 30 9 16 1013.3 1013.1 0.0
22/01:30pm 32.5 30.5 15.5 36 10.6 E 20 35 11 19 1013.7 1013.5 0.0
22/01:00pm 33.1 31.5 16.5 37 10.5 ENE 20 32 11 17 1014.5 1014.3 0.0
22/12:30pm 33.0 32.1 16.8 38 10.3 E 17 30 9 16 1015.0 1014.8 0.0
22/12:00pm 31.7 28.8 16.0 38 9.8 E 26 35 14 19 1015.2 1015.0 0.0
22/11:30am 31.3 28.9 16.5 41 9.3 E 24 35 13 19 1015.4 1015.2 0.0
22/11:00am 31.8 29.9 17.7 43 9.0 E 24 37 13 20 1015.9 1015.7 0.0
22/10:30am 31.1 31.3 20.1 52 7.3 E 19 28 10 15 1016.1 1015.9 0.0
22/10:00am 30.2 30.4 20.2 55 6.6 E 19 28 10 15 1016.5 1016.3 0.0
22/09:30am 28.6 30.4 21.1 64 5.0 E 13 19 7 10 1016.7 1016.5 0.0
22/09:00am 27.5 29.9 21.5 70 4.0 E 11 17 6 9 1016.8 1016.6 0.0
22/08:30am 26.4 29.3 21.8 76 3.1 E 9 15 5 8 1016.7 1016.5 0.0
22/08:00am 23.8 28.0 20.9 84 1.9 CALM 0 0 0 0 1016.5 1016.3 0.0
22/07:30am 22.7 26.7 20.6 88 1.4 CALM 0 0 0 0 1016.2 1016.0 0.0
22/07:00am 22.0 25.1 20.3 90 1.1 ESE 4 6 2 3 1015.8 1015.6 0.0
22/06:30am 22.0 24.8 20.5 91 1.0 ENE 6 7 3 4 1015.7 1015.5 0.0
22/06:00am 21.9 24.6 20.2 90 1.1 SSE 6 7 3 4 1015.5 1015.3 0.0
22/05:30am 22.6 25.5 21.1 91 1.0 SSW 7 9 4 5 1015.6 1015.4 0.0
22/05:00am 22.6 26.8 20.9 90 1.1 CALM 0 0 0 0 1015.6 1015.4 0.0
22/04:30am 22.9 27.2 21.2 90 1.1 CALM 0 0 0 0 1015.5 1015.3 0.0
22/04:00am 23.1 27.3 21.0 88 1.4 CALM 0 0 0 0 1015.4 1015.2 0.0
22/03:30am 23.3 27.6 21.2 88 1.4 CALM 0 0 0 0 1015.2 1015.0 0.0
22/03:00am 23.2 27.4 20.9 87 1.5 CALM 0 0 0 0 1015.2 1015.0 0.0
22/02:30am 24.1 27.7 21.2 84 1.9 NE 4 7 2 4 1015.3 1015.1 0.0
22/02:00am 23.9 28.0 21.6 87 1.5 NE 2 6 1 3 1015.5 1015.3 0.0
22/01:30am 23.8 26.9 21.1 85 1.8 NE 6 7 3 4 1015.6 1015.4 0.0
22/01:00am 24.4 28.9 21.5 84 1.9 CALM 0 0 0 0 1015.7 1015.5 0.0
22/12:30am 24.7 28.1 21.6 83 2.1 NNE 6 7 3 4 1015.9 1015.7 0.0
22/12:00am 25.1 28.5 21.6 81 2.3 N 6 9 3 5 1015.8 1015.6 0.0
 
Date/Time
CST
Temp
°C
App
Temp
°C
Dew
Point
Rel
Hum
%
Delta-T
°C
Wind Press
QNH
hPa
Press
MSL
hPa
Rain
since 9 am
mm
Dir
 
Spd
km/h
Gust
km/h
Spd
kts
Gust
kts
21/11:30pm 25.4 28.5 21.5 79 2.6 NNW 7 9 4 5 1016.0 1015.8 0.0
21/11:00pm 25.7 28.8 21.4 77 2.9 N 7 11 4 6 1015.9 1015.7 0.0
21/10:30pm 26.3 29.3 21.3 74 3.3 NNW 7 9 4 5 1015.8 1015.6 0.0
21/10:00pm 26.8 29.8 21.3 72 3.7 NNW 7 13 4 7 1015.4 1015.2 0.0
21/09:30pm 27.3 30.3 21.3 69 4.0 NW 7 11 4 6 1015.2 1015.0 0.0
21/09:00pm 27.6 29.6 20.7 66 4.6 NNW 11 15 6 8 1014.9 1014.7 0.0
21/08:30pm 28.2 30.3 20.2 62 5.3 NW 9 13 5 7 1014.6 1014.4 0.0
21/08:00pm 28.7 30.7 19.9 59 5.8 NW 9 15 5 8 1014.1 1013.9 0.0
21/07:30pm 29.1 30.5 16.3 46 8.0 ESE 4 7 2 4 1013.7 1013.5 0.0
21/07:00pm 29.4 30.4 16.9 47 7.9 E 7 9 4 5 1013.4 1013.2 0.0
21/06:30pm 30.6 31.5 16.2 41 9.0 E 6 9 3 5 1013.1 1012.9 0.0
21/06:00pm 31.9 32.6 16.2 38 9.9 E 7 9 4 5 1012.8 1012.6 0.0
21/05:30pm 32.8 32.8 15.3 34 10.9 E 9 11 5 6 1012.6 1012.4 0.0
21/05:00pm 34.1 32.9 15.1 32 11.8 E 15 20 8 11 1012.3 1012.1 0.0
21/04:30pm 34.2 33.4 15.1 31 11.9 E 13 17 7 9 1012.1 1011.9 0.0
21/04:00pm 34.5 33.6 14.9 31 12.2 E 13 19 7 10 1012.0 1011.8 0.0
21/03:30pm 34.8 33.1 14.7 30 12.5 ENE 17 26 9 14 1012.1 1011.9 0.0
21/03:00pm 35.1 33.8 14.9 29 12.6 ENE 15 22 8 12 1012.4 1012.2 0.0
21/02:30pm 35.0 33.7 15.8 31 12.1 ENE 17 30 9 16 1012.9 1012.7 0.0
21/02:00pm 34.8 34.0 16.1 32 11.8 E 15 28 8 15 1013.3 1013.1 0.0
21/01:30pm 34.0 31.8 15.9 33 11.4 E 22 39 12 21 1013.9 1013.7 0.0
21/01:00pm 34.1 32.7 16.5 35 11.2 ENE 19 26 10 14 1014.4 1014.2 0.0
21/12:30pm 33.4 33.9 18.3 40 9.8 E 13 20 7 11 1014.9 1014.7 0.0
21/12:00pm 32.3 33.3 19.5 46 8.4 E 13 19 7 10 1015.3 1015.1 0.0
21/11:30am 31.3 33.3 19.9 50 7.5 E 9 17 5 9 1015.7 1015.5 0.0
21/11:00am 30.4 32.3 20.6 55 6.5 E 11 17 6 9 1016.2 1016.0 0.0
21/10:30am 29.6 31.1 20.5 58 6.0 E 13 20 7 11 1016.6 1016.4 0.0
21/10:00am 29.1 31.3 21.1 62 5.3 ENE 11 17 6 9 1016.9 1016.7 0.0
21/09:30am 28.8 32.0 21.6 65 4.8 E 7 15 4 8 1017.0 1016.8 0.0
21/09:00am 27.8 30.9 21.1 67 4.4 E 6 9 3 5 1017.0 1016.8 0.0
21/08:30am 25.8 30.4 21.7 78 2.7 CALM 0 4 0 2 1016.9 1016.7 0.0
21/08:00am 24.2 27.4 21.3 84 1.9 SSW 6 7 3 4 1016.6 1016.4 0.0
21/07:30am 23.2 27.4 20.9 87 1.5 CALM 0 0 0 0 1016.3 1016.1 0.0
21/07:00am 22.7 26.3 20.6 88 1.4 S 2 7 1 4 1016.0 1015.8 0.0
21/06:30am 23.0 25.8 20.9 88 1.4 SSW 7 11 4 6 1015.7 1015.5 0.0
21/06:00am 22.6 25.2 20.5 88 1.4 SSW 7 9 4 5 1015.6 1015.4 0.0
21/05:30am 22.5 24.8 20.6 89 1.2 SSW 9 11 5 6 1015.4 1015.2 0.0
21/05:00am 21.8 23.9 20.1 90 1.1 S 9 11 5 6 1015.3 1015.1 0.0
21/04:30am 22.1 24.6 19.8 87 1.5 W 6 9 3 5 1015.0 1014.8 0.0
21/04:00am 22.2 25.9 19.9 87 1.5 CALM 0 0 0 0 1015.0 1014.8 0.0
21/03:30am 22.7 26.4 19.9 84 1.8 CALM 0 0 0 0 1015.1 1014.9 0.0
21/03:00am 23.1 27.0 20.4 85 1.8 CALM 0 0 0 0 1015.1 1014.9 0.0
21/02:30am 23.2 25.9 20.3 84 1.9 SSW 6 7 3 4 1015.2 1015.0 0.0
21/02:00am 23.0 25.7 20.3 85 1.7 ESE 6 7 3 4 1015.4 1015.2 0.0
21/01:30am 23.3 26.2 20.6 85 1.8 E 6 6 3 3 1015.5 1015.3 0.0
21/01:00am 24.7 27.5 20.4 77 2.8 NNW 6 7 3 4 1015.2 1015.0 0.0
21/12:30am 24.6 28.6 20.5 78 2.7 CALM 0 0 0 0 1015.1 1014.9 0.0
21/12:00am 25.2 28.4 21.3 79 2.6 WNW 6 7 3 4 1015.2 1015.0 0.0
 
Date/Time
CST
Temp
°C
App
Temp
°C
Dew
Point
Rel
Hum
%
Delta-T
°C
Wind Press
QNH
hPa
Press
MSL
hPa
Rain
since 9 am
mm
Dir
 
Spd
km/h
Gust
km/h
Spd
kts
Gust
kts
20/11:30pm 25.6 28.8 21.7 79 2.6 NNW 7 9 4 5 1015.4 1015.2 0.0
20/11:00pm 25.8 30.6 22.1 80 2.5 CALM 0 0 0 0 1015.4 1015.2 0.0
20/10:30pm 26.1 29.9 22.4 80 2.5 W 6 7 3 4 1015.4 1015.2 0.0
20/10:00pm 26.7 31.9 22.8 79 2.6 CALM 0 0 0 0 1015.3 1015.1 0.0
20/09:30pm 27.0 30.6 22.4 76 3.1 NNW 7 9 4 5 1015.2 1015.0 0.0
20/09:00pm 27.5 30.0 22.4 73 3.4 NNW 13 19 7 10 1015.0 1014.8 0.0
20/08:30pm 28.1 30.8 22.1 70 4.0 NNW 11 17 6 9 1014.7 1014.5 0.0
20/08:00pm 28.0 30.0 20.8 65 4.8 NW 11 15 6 8 1014.2 1014.0 0.0
20/07:30pm 29.6 31.4 18.7 52 7.0 N 7 9 4 5 1013.4 1013.2 0.0
20/07:00pm 30.9 32.2 17.6 45 8.5 NNW 7 9 4 5 1013.1 1012.9 0.0
20/06:30pm 31.3 32.3 16.8 41 9.2 N 7 7 4 4 1012.8 1012.6 0.0
20/06:00pm 32.4 33.4 16.3 38 10.1 NE 6 7 3 4 1012.6 1012.4 0.0
20/05:30pm 32.8 33.4 15.3 34 10.9 E 6 7 3 4 1012.3 1012.1 0.0
20/05:00pm 34.7 35.2 15.6 32 12.0 NE 7 11 4 6 1011.9 1011.7 0.0
20/04:30pm 34.5 34.8 14.9 31 12.2 NE 7 11 4 6 1011.6 1011.4 0.0
20/04:00pm 34.2 34.3 15.6 32 11.7 E 9 15 5 8 1011.6 1011.4 0.0
20/03:30pm 34.8 35.1 16.1 32 11.8 E 9 22 5 12 1011.7 1011.5 0.0
20/03:00pm 35.1 36.1 16.9 34 11.7 SSW 7 19 4 10 1011.8 1011.6 0.0
20/02:30pm 34.6 35.6 17.8 37 10.9 NE 9 13 5 7 1012.3 1012.1 0.0
20/02:00pm 34.0 34.8 17.2 36 10.8 ENE 9 17 5 9 1012.6 1012.4 0.0
20/01:30pm 33.7 34.7 17.8 38 10.3 E 9 15 5 8 1013.2 1013.0 0.0
20/01:00pm 33.3 33.6 17.9 40 9.9 ESE 13 20 7 11 1013.7 1013.5 0.0
20/12:30pm 32.5 34.0 19.0 44 8.8 SSE 9 15 5 8 1014.3 1014.1 0.0
20/12:00pm 31.9 33.7 19.5 47 8.1 SSE 9 15 5 8 1014.7 1014.5 0.0
20/11:30am 31.0 33.2 20.3 53 7.1 S 9 17 5 9 1015.1 1014.9 0.0
20/11:00am 30.4 33.1 20.6 55 6.5 WNW 7 13 4 7 1015.5 1015.3 0.0
20/10:30am 29.4 31.9 20.3 58 6.0 E 7 15 4 8 1015.9 1015.7 0.0
20/10:00am 28.8 31.7 21.0 62 5.2 NE 7 15 4 8 1016.2 1016.0 0.0
20/09:30am 28.5 31.5 21.3 65 4.8 E 7 13 4 7 1016.3 1016.1 0.0

Other Formats:

Comma delimited format used in spreadsheet applications
http://www.bom.gov.au/fwo/IDD60801/IDD60801.94137.axf

JavaScript Object Notation format (JSON) in row-major order
http://www.bom.gov.au/fwo/IDD60801/IDD60801.94137.json